Time;durP1;ratioP1;P1;durP2;ratioP2;P2;SDS_P1;SDS_P2;PMS_P1;PMS_P2;Temp;Humidity;BMP_temperature;BMP_pressure;BME280_temperature;BME280_humidity;BME280_pressure;Samples;Min_cycle;Max_cycle;Signal;HPM_P1;HPM_P2
2021/07/10 00:00:46;;;;;;;6.80;6.20;;;;;;;16.65;75.08;101951.84;5030240;28;20192;-71
2021/07/10 00:03:11;;;;;;;7.10;6.40;;;;;;;16.72;75.29;101972.47;5034157;28;20216;-71
2021/07/10 00:05:37;;;;;;;6.47;5.83;;;;;;;16.46;76.68;101962.53;5028403;28;20262;-71
2021/07/10 00:08:02;;;;;;;6.90;6.30;;;;;;;16.50;76.67;101979.19;5028369;28;20554;-71
2021/07/10 00:10:28;;;;;;;8.73;6.30;;;;;;;16.15;76.86;101929.84;5034854;28;20218;-71
2021/07/10 00:12:54;;;;;;;7.97;6.40;;;;;;;16.36;77.58;101975.66;5032043;28;20192;-72
2021/07/10 00:15:22;;;;;;;7.30;6.57;;;;;;;16.26;76.45;101924.63;5037800;28;20473;-71
2021/07/10 00:17:49;;;;;;;7.40;6.73;;;;;;;15.91;76.69;101874.47;5032229;28;20668;-72
2021/07/10 00:20:15;;;;;;;7.20;6.50;;;;;;;16.62;76.91;101971.25;5031482;28;20870;-72
2021/07/10 00:22:42;;;;;;;9.43;6.67;;;;;;;15.94;76.61;101882.19;5032867;28;20473;-72
2021/07/10 00:25:09;;;;;;;7.87;6.60;;;;;;;16.44;76.77;101937.53;5029958;28;20458;-72
2021/07/10 00:27:35;;;;;;;6.90;6.20;;;;;;;16.51;75.23;101934.78;5032848;28;20434;-71
2021/07/10 00:30:01;;;;;;;7.27;6.57;;;;;;;16.62;74.17;101911.66;5031057;28;20442;-71
2021/07/10 00:32:26;;;;;;;7.47;6.77;;;;;;;16.94;73.31;101935.13;5031313;28;20176;-71
2021/07/10 00:34:52;;;;;;;7.07;6.37;;;;;;;16.43;74.77;101886.28;5027043;28;21259;-71
2021/07/10 00:37:17;;;;;;;7.63;6.80;;;;;;;16.28;76.36;101952.31;5033638;28;26318;-71
2021/07/10 00:39:43;;;;;;;6.33;5.73;;;;;;;16.51;75.91;101967.28;5030032;28;20192;-72
2021/07/10 00:42:08;;;;;;;6.33;5.73;;;;;;;16.86;75.49;101954.31;5031873;28;20567;-71
2021/07/10 00:44:33;;;;;;;8.70;7.00;;;;;;;16.23;74.58;101843.03;5030598;28;20187;-71
2021/07/10 00:46:59;;;;;;;7.30;6.60;;;;;;;17.11;74.06;101956.31;5030554;28;20286;-72
2021/07/10 00:49:24;;;;;;;7.47;6.20;;;;;;;16.61;73.65;101866.66;5029397;28;21138;-71
2021/07/10 00:51:50;;;;;;;7.30;6.70;;;;;;;16.27;74.32;101838.84;5028777;28;20192;-72
2021/07/10 00:54:15;;;;;;;6.70;6.00;;;;;;;16.41;74.95;101878.38;5029644;28;20267;-71
2021/07/10 00:56:44;;;;;;;7.20;6.50;;;;;;;16.79;74.63;101909.34;5034744;28;20286;-72
2021/07/10 00:59:09;;;;;;;7.63;6.93;;;;;;;16.96;74.61;101937.63;5031932;28;20278;-72
2021/07/10 01:01:35;;;;;;;8.07;6.37;;;;;;;16.68;74.43;101905.38;5032266;28;20481;-72
2021/07/10 01:04:02;;;;;;;7.60;6.90;;;;;;;16.73;74.19;101924.53;5028669;28;20269;-72
2021/07/10 01:06:28;;;;;;;8.57;7.10;;;;;;;17.16;73.04;101954.63;5032318;28;20211;-73
2021/07/10 01:08:53;;;;;;;8.60;7.07;;;;;;;17.06;73.14;101926.31;5025108;28;20432;-71
2021/07/10 01:11:19;;;;;;;7.07;6.33;;;;;;;16.47;74.85;101895.66;5038682;28;20270;-72
2021/07/10 01:13:44;;;;;;;8.43;7.50;;;;;;;16.56;74.62;101898.97;5030248;28;20194;-71
2021/07/10 01:16:10;;;;;;;7.83;7.03;;;;;;;16.86;73.69;101912.84;5031901;28;20212;-72
2021/07/10 01:18:35;;;;;;;8.10;7.13;;;;;;;16.61;74.82;101923.53;5032725;28;20207;-71
2021/07/10 01:21:01;;;;;;;8.20;7.23;;;;;;;16.72;74.98;101931.84;5031499;28;20187;-71
2021/07/10 01:23:26;;;;;;;6.67;6.07;;;;;;;16.61;75.01;101915.41;5032080;28;20262;-71
2021/07/10 01:25:52;;;;;;;7.30;6.60;;;;;;;16.77;74.19;101904.13;5028808;28;20208;-72
2021/07/10 01:28:19;;;;;;;8.90;6.40;;;;;;;16.63;74.49;101918.72;5027310;28;20227;-70
2021/07/10 01:30:46;;;;;;;6.73;6.13;;;;;;;16.70;75.19;101936.63;5032909;28;20226;-71
2021/07/10 01:33:13;;;;;;;6.10;5.50;;;;;;;16.83;75.12;101943.91;5026526;28;20852;-71
2021/07/10 01:35:38;;;;;;;7.20;6.50;;;;;;;16.70;74.97;101927.69;5032787;28;20477;-72
2021/07/10 01:38:06;;;;;;;7.93;6.80;;;;;;;16.53;74.39;101908.34;5028171;28;20505;-71
2021/07/10 01:40:32;;;;;;;8.43;6.87;;;;;;;16.78;73.84;101902.25;5034269;28;20287;-72
2021/07/10 01:43:02;;;;;;;5.87;5.13;;;;;;;17.22;73.37;101942.09;5029538;28;20943;-71
2021/07/10 01:45:27;;;;;;;6.00;5.50;;;;;;;16.79;72.63;101871.41;5028456;28;20492;-70
2021/07/10 01:47:53;;;;;;;7.70;6.03;;;;;;;16.99;73.42;101947.22;5030009;28;20909;-71
2021/07/10 01:50:19;;;;;;;6.80;6.20;;;;;;;16.80;71.99;101903.69;5027329;28;20188;-70
2021/07/10 01:52:45;;;;;;;7.07;6.37;;;;;;;16.42;72.26;101825.88;5031573;28;20450;-71
2021/07/10 01:55:13;;;;;;;7.40;6.67;;;;;;;17.22;71.61;101944.81;5029534;28;20248;-71
2021/07/10 01:57:39;;;;;;;5.27;4.87;;;;;;;16.84;72.28;101904.94;5033084;28;20552;-71
2021/07/10 02:00:15;;;;;;;6.77;6.13;;;;;;;17.10;72.07;101946.53;5030269;28;20442;-70
2021/07/10 02:02:42;;;;;;;7.23;6.60;;;;;;;16.92;71.95;101884.88;5030207;28;21001;-71
2021/07/10 02:05:08;;;;;;;6.70;6.10;;;;;;;16.70;72.46;101901.41;5030092;28;20466;-70
2021/07/10 02:07:34;;;;;;;7.10;6.40;;;;;;;16.78;72.02;101883.28;5030995;28;20797;-71
2021/07/10 02:09:59;;;;;;;9.07;7.07;;;;;;;17.18;71.22;101911.03;5030864;28;20442;-71
2021/07/10 02:12:25;;;;;;;7.50;6.80;;;;;;;17.14;71.28;101928.78;5029439;28;20227;-71
2021/07/10 02:14:51;;;;;;;6.43;5.90;;;;;;;17.11;71.58;101924.63;5028461;28;20278;-70
2021/07/10 02:17:16;;;;;;;7.00;6.30;;;;;;;16.89;72.37;101912.41;5030681;28;20812;-71
2021/07/10 02:19:42;;;;;;;7.90;7.20;;;;;;;17.03;71.67;101921.31;5028470;28;20184;-71
2021/07/10 02:22:08;;;;;;;7.20;6.27;;;;;;;17.07;71.56;101923.41;5028569;28;20668;-71
2021/07/10 02:24:34;;;;;;;6.30;5.80;;;;;;;16.64;71.36;101836.44;5034559;28;20274;-71
2021/07/10 02:27:00;;;;;;;7.20;6.57;;;;;;;17.14;71.53;101917.94;5030273;28;20457;-71
2021/07/10 02:29:26;;;;;;;6.63;6.07;;;;;;;17.20;71.55;101908.94;5034792;28;20533;-72
2021/07/10 02:31:51;;;;;;;7.40;6.70;;;;;;;16.96;71.66;101871.75;5031792;28;20199;-71
2021/07/10 02:34:17;;;;;;;7.40;6.80;;;;;;;16.65;72.15;101876.84;5027545;28;20450;-72
2021/07/10 02:36:43;;;;;;;7.23;6.60;;;;;;;17.09;71.21;101934.84;5029825;28;20599;-71
2021/07/10 02:39:08;;;;;;;6.57;5.97;;;;;;;17.08;71.56;101894.41;5027990;28;20196;-71
2021/07/10 02:41:33;;;;;;;7.07;6.30;;;;;;;17.13;71.91;101905.44;5026657;28;20968;-71
2021/07/10 02:43:59;;;;;;;6.90;6.30;;;;;;;16.96;72.06;101863.63;5028309;28;20215;-71
2021/07/10 02:46:25;;;;;;;6.93;6.33;;;;;;;16.77;71.53;101840.97;5028944;28;20605;-71
2021/07/10 02:48:50;;;;;;;7.07;6.33;;;;;;;16.63;72.39;101878.91;5029947;28;20453;-71
2021/07/10 02:51:16;;;;;;;5.93;5.43;;;;;;;16.84;73.07;101894.09;5030049;28;20235;-71
2021/07/10 02:53:41;;;;;;;7.13;6.50;;;;;;;16.73;71.88;101854.09;5029313;28;20179;-71
2021/07/10 02:56:07;;;;;;;7.00;5.83;;;;;;;16.55;73.02;101832.28;5026902;28;20211;-70
2021/07/10 02:58:32;;;;;;;6.27;5.33;;;;;;;16.75;73.36;101868.28;5027292;28;20188;-71
2021/07/10 03:00:58;;;;;;;5.50;5.10;;;;;;;16.57;73.01;101847.28;5027828;28;20246;-71
2021/07/10 03:03:24;;;;;;;6.43;5.83;;;;;;;16.48;72.23;101826.91;5027048;28;20200;-71
2021/07/10 03:05:50;;;;;;;5.67;5.17;;;;;;;16.33;73.39;101807.38;5032800;28;20470;-71
2021/07/10 03:08:16;;;;;;;6.43;5.83;;;;;;;16.61;74.33;101878.31;5028642;28;20219;-70
2021/07/10 03:10:43;;;;;;;6.50;5.53;;;;;;;15.81;75.87;101793.75;5031426;28;20447;-71
2021/07/10 03:13:08;;;;;;;5.20;4.80;;;;;;;16.20;75.83;101859.66;5030254;28;20181;-71
2021/07/10 03:15:35;;;;;;;5.83;5.33;;;;;;;16.18;76.28;101865.31;5026925;28;20457;-71
2021/07/10 03:18:00;;;;;;;5.90;4.40;;;;;;;15.85;76.84;101834.75;5030471;28;20184;-71
2021/07/10 03:20:26;;;;;;;4.70;4.30;;;;;;;16.14;76.12;101868.63;5026963;28;20455;-71
2021/07/10 03:22:52;;;;;;;6.00;5.27;;;;;;;16.45;74.82;101865.22;5029171;28;20204;-71
2021/07/10 03:25:18;;;;;;;6.00;5.40;;;;;;;15.71;78.67;101859.09;5029958;28;20738;-71
2021/07/10 03:27:45;;;;;;;5.87;5.37;;;;;;;15.66;79.65;101858.84;5034772;28;20450;-71
2021/07/10 03:30:13;;;;;;;5.20;4.80;;;;;;;15.79;78.95;101856.19;5036249;28;20443;-71
2021/07/10 03:32:38;;;;;;;4.40;4.00;;;;;;;15.52;78.52;101830.97;5037882;28;20434;-71
2021/07/10 03:35:06;;;;;;;5.20;4.70;;;;;;;15.69;78.16;101822.47;5033931;28;20528;-71
2021/07/10 03:37:31;;;;;;;4.30;4.00;;;;;;;16.00;77.22;101857.84;5034794;28;20211;-71
2021/07/10 03:39:56;;;;;;;6.00;5.50;;;;;;;14.89;79.65;101779.13;5034849;28;20482;-71
2021/07/10 03:42:22;;;;;;;5.50;5.00;;;;;;;14.91;79.92;101780.59;5040080;28;20328;-71
2021/07/10 03:44:47;;;;;;;5.03;4.63;;;;;;;15.50;78.53;101813.28;5036356;28;20622;-72
2021/07/10 03:47:12;;;;;;;8.50;5.63;;;;;;;15.53;78.64;101848.03;5032015;28;20180;-71
2021/07/10 03:49:40;;;;;;;6.30;5.00;;;;;;;15.91;77.39;101837.47;5032789;28;20187;-71
2021/07/10 03:52:06;;;;;;;6.07;5.57;;;;;;;15.93;77.34;101835.34;5034020;28;20184;-70
2021/07/10 03:54:31;;;;;;;6.80;5.40;;;;;;;16.07;75.90;101832.63;5035517;28;20442;-71
2021/07/10 03:56:57;;;;;;;5.40;4.90;;;;;;;15.44;77.95;101781.69;5032412;28;20715;-71
2021/07/10 03:59:22;;;;;;;6.20;5.60;;;;;;;15.46;78.71;101829.09;5034446;28;20184;-71
2021/07/10 04:01:47;;;;;;;4.90;4.50;;;;;;;15.72;77.76;101849.94;5035238;28;20565;-71
2021/07/10 04:04:13;;;;;;;5.53;4.97;;;;;;;16.05;76.85;101851.78;5035417;28;20181;-71
2021/07/10 04:06:39;;;;;;;5.23;4.63;;;;;;;16.12;76.53;101849.91;5031306;28;20222;-71
2021/07/10 04:09:05;;;;;;;5.90;5.07;;;;;;;16.12;76.86;101849.09;5037797;28;20196;-71
2021/07/10 04:11:30;;;;;;;5.47;4.87;;;;;;;15.84;75.04;101751.94;5035548;28;20529;-71
2021/07/10 04:13:56;;;;;;;6.00;5.27;;;;;;;16.72;73.91;101847.84;5044217;28;20226;-71
2021/07/10 04:16:21;;;;;;;7.40;5.40;;;;;;;16.44;74.19;101782.34;5041761;28;20624;-71
2021/07/10 04:18:47;;;;;;;5.77;5.23;;;;;;;16.31;74.52;101795.91;5031730;28;20191;-71
2021/07/10 04:21:12;;;;;;;5.17;4.77;;;;;;;16.30;75.23;101794.28;5037034;28;20774;-71
2021/07/10 04:23:38;;;;;;;5.40;4.90;;;;;;;16.10;76.58;101780.78;5034025;28;20267;-71
2021/07/10 04:26:03;;;;;;;5.67;5.27;;;;;;;15.83;77.32;101759.22;5035247;28;20254;-71
2021/07/10 04:28:28;;;;;;;4.80;4.40;;;;;;;15.98;77.15;101805.78;5035111;28;20180;-71
2021/07/10 04:30:54;;;;;;;5.73;4.80;;;;;;;16.09;76.70;101800.78;5032958;28;20756;-71
2021/07/10 04:33:19;;;;;;;4.60;4.20;;;;;;;16.13;76.64;101826.38;5036265;28;20199;-71
2021/07/10 04:35:45;;;;;;;4.83;4.43;;;;;;;16.36;75.62;101829.44;5035584;28;20702;-71
2021/07/10 04:38:10;;;;;;;4.33;4.03;;;;;;;15.92;76.18;101785.00;5031431;28;20195;-71
2021/07/10 04:40:36;;;;;;;3.90;3.60;;;;;;;16.06;76.56;101833.69;5034439;28;20533;-70
2021/07/10 04:43:01;;;;;;;5.07;4.57;;;;;;;15.28;79.35;101772.94;5031015;28;20214;-71
2021/07/10 04:45:28;;;;;;;5.43;4.47;;;;;;;15.69;79.35;101808.97;5032491;28;20207;-71
2021/07/10 04:47:53;;;;;;;5.87;5.37;;;;;;;16.15;76.73;101794.53;5031825;28;20195;-71
2021/07/10 04:50:21;;;;;;;5.43;4.93;;;;;;;16.58;73.58;101793.97;5035154;28;20458;-71
2021/07/10 04:52:48;;;;;;;5.83;5.27;;;;;;;16.64;72.80;101780.38;5032841;28;20266;-71
2021/07/10 04:55:15;;;;;;;4.83;3.87;;;;;;;16.57;74.73;101819.38;5029394;28;22185;-71
2021/07/10 04:57:42;;;;;;;4.27;3.87;;;;;;;16.68;74.14;101829.53;5039368;28;20535;-71
2021/07/10 05:00:08;;;;;;;5.10;4.70;;;;;;;16.49;74.40;101802.31;5029316;28;20603;-72
2021/07/10 05:02:34;;;;;;;4.27;3.90;;;;;;;16.52;73.83;101800.22;5030883;28;20471;-72
2021/07/10 05:04:59;;;;;;;5.03;4.53;;;;;;;16.99;72.43;101841.50;5030609;28;20212;-72
2021/07/10 05:07:25;;;;;;;4.63;4.00;;;;;;;16.89;72.65;101821.13;5033879;28;20197;-71
2021/07/10 05:09:51;;;;;;;5.90;5.20;;;;;;;16.97;73.21;101838.16;5034193;28;20198;-72
2021/07/10 05:12:20;;;;;;;4.70;4.23;;;;;;;16.91;71.98;101827.16;5030475;28;20176;-72
2021/07/10 05:14:47;;;;;;;4.27;3.87;;;;;;;16.98;72.36;101826.28;5031294;28;20437;-71
2021/07/10 05:17:12;;;;;;;4.63;4.23;;;;;;;16.85;72.64;101825.31;5026805;28;21097;-72
2021/07/10 05:19:37;;;;;;;4.63;4.20;;;;;;;16.95;72.27;101827.53;5030223;28;20450;-72
2021/07/10 05:22:04;;;;;;;4.73;4.30;;;;;;;17.01;72.16;101821.28;5029989;28;20188;-71
2021/07/10 05:24:29;;;;;;;5.10;4.60;;;;;;;16.92;72.37;101830.69;5030459;28;20397;-71
2021/07/10 05:26:54;;;;;;;5.80;5.30;;;;;;;16.66;71.59;101762.03;5029996;28;20479;-71
2021/07/10 05:29:20;;;;;;;5.50;5.00;;;;;;;16.64;71.62;101739.75;5030348;28;20648;-71
2021/07/10 05:31:45;;;;;;;6.10;5.20;;;;;;;16.88;72.26;101800.47;5030767;28;20934;-71
2021/07/10 05:34:11;;;;;;;6.20;5.60;;;;;;;17.03;72.07;101811.03;5029311;28;20655;-71
2021/07/10 05:36:37;;;;;;;7.60;5.87;;;;;;;17.17;72.25;101836.16;5029115;28;21027;-72
2021/07/10 05:39:03;;;;;;;5.23;4.80;;;;;;;17.15;72.09;101817.44;5037182;28;20472;-71
2021/07/10 05:41:28;;;;;;;6.17;5.57;;;;;;;17.29;71.58;101818.16;5034890;28;20656;-72
2021/07/10 05:43:54;;;;;;;6.03;5.50;;;;;;;17.06;72.36;101797.03;5031977;28;20519;-72
2021/07/10 05:46:19;;;;;;;6.20;5.60;;;;;;;17.16;71.87;101794.69;5032874;28;20215;-71
2021/07/10 05:48:44;;;;;;;5.43;4.93;;;;;;;17.10;72.57;101786.59;5030625;28;20292;-71
2021/07/10 05:51:10;;;;;;;5.93;5.37;;;;;;;17.06;72.36;101797.03;5031159;28;20191;-71
2021/07/10 05:53:35;;;;;;;5.93;5.43;;;;;;;17.39;71.19;101809.53;5031767;28;20243;-71
2021/07/10 05:56:01;;;;;;;6.90;6.20;;;;;;;17.09;71.11;101761.34;5043695;28;20258;-71
2021/07/10 05:58:26;;;;;;;6.03;5.43;;;;;;;17.39;72.08;101823.94;5035076;28;20212;-72
2021/07/10 06:00:51;;;;;;;6.67;6.03;;;;;;;16.97;71.20;101768.53;5028867;28;20183;-71
2021/07/10 06:03:17;;;;;;;8.00;7.20;;;;;;;16.89;72.40;101785.06;5030804;28;20215;-72
2021/07/10 06:05:42;;;;;;;5.70;5.20;;;;;;;17.36;71.87;101820.84;5030281;28;20207;-72
2021/07/10 06:08:08;;;;;;;6.67;5.77;;;;;;;17.20;72.32;101799.66;5033452;28;20198;-72
2021/07/10 06:10:33;;;;;;;8.50;7.00;;;;;;;17.16;72.58;101797.41;5030671;28;20196;-71
2021/07/10 06:12:59;;;;;;;6.80;6.13;;;;;;;17.30;72.79;101818.97;5027024;28;20180;-72
2021/07/10 06:15:24;;;;;;;5.83;5.33;;;;;;;17.27;73.24;101828.41;5027626;28;20218;-72
2021/07/10 06:17:50;;;;;;;6.53;5.83;;;;;;;17.09;73.82;101804.72;5026414;28;20212;-72
2021/07/10 06:20:17;;;;;;;7.67;6.57;;;;;;;17.00;72.63;101776.22;5030183;28;20246;-71
2021/07/10 06:22:44;;;;;;;6.97;6.27;;;;;;;17.16;73.01;101807.41;5026292;28;20212;-72
2021/07/10 06:25:11;;;;;;;7.53;6.60;;;;;;;17.50;72.70;101833.25;5029968;28;20458;-72
2021/07/10 06:27:36;;;;;;;6.77;6.13;;;;;;;17.63;72.78;101830.41;5032351;28;20813;-72
2021/07/10 06:30:12;;;;;;;6.70;6.10;;;;;;;17.63;73.64;101838.53;5030301;28;20449;-72
2021/07/10 06:32:38;;;;;;;7.90;7.10;;;;;;;17.17;71.78;101762.97;5029202;28;20215;-73
2021/07/10 06:35:05;;;;;;;9.23;6.60;;;;;;;17.59;71.61;101829.19;5020803;28;20474;-71
2021/07/10 06:37:30;;;;;;;7.23;6.10;;;;;;;17.84;71.57;101841.94;5029269;28;20983;-71
2021/07/10 06:39:56;;;;;;;7.63;6.80;;;;;;;17.72;70.76;101836.38;5035959;28;20560;-72
2021/07/10 06:42:22;;;;;;;6.43;5.77;;;;;;;17.73;70.48;101818.22;5046397;28;20286;-72
2021/07/10 06:44:47;;;;;;;7.30;6.40;;;;;;;17.78;71.25;101835.53;5032003;28;20237;-72
2021/07/10 06:47:13;;;;;;;7.00;6.07;;;;;;;17.51;71.15;101796.09;5028676;28;20192;-72
2021/07/10 06:49:38;;;;;;;7.50;6.70;;;;;;;17.35;70.25;101781.19;5034190;28;20632;-72
2021/07/10 06:52:04;;;;;;;6.87;6.20;;;;;;;17.79;70.13;101822.78;5029356;28;20196;-71
2021/07/10 06:54:30;;;;;;;5.60;5.10;;;;;;;17.78;71.30;101807.56;5035574;28;20188;-72
2021/07/10 06:56:55;;;;;;;6.07;5.50;;;;;;;17.75;71.76;101792.53;5026924;28;20465;-71
2021/07/10 06:59:20;;;;;;;6.17;5.67;;;;;;;17.62;70.17;101741.13;5041432;28;20203;-71
2021/07/10 07:01:50;;;;;;;5.80;5.30;;;;;;;17.81;70.03;101780.81;5033615;28;20727;-71
2021/07/10 07:04:16;;;;;;;5.13;4.73;;;;;;;17.80;65.94;101790.00;5032309;28;20188;-70
2021/07/10 07:06:41;;;;;;;6.53;5.83;;;;;;;17.96;67.98;101804.03;5031332;28;20553;-70
2021/07/10 07:09:06;;;;;;;5.80;5.30;;;;;;;18.00;68.56;101805.28;5033117;28;20176;-71
2021/07/10 07:11:32;;;;;;;4.90;4.37;;;;;;;17.68;66.88;101758.38;5035439;28;20653;-72
2021/07/10 07:13:57;;;;;;;6.20;4.67;;;;;;;18.04;67.36;101822.75;5036090;28;20181;-71
2021/07/10 07:16:22;;;;;;;5.70;5.20;;;;;;;18.14;67.43;101814.94;5035883;28;20290;-71
2021/07/10 07:18:48;;;;;;;5.03;4.50;;;;;;;17.75;68.30;101753.72;5035692;28;20188;-72
2021/07/10 07:21:13;;;;;;;4.10;3.70;;;;;;;18.07;68.95;101804.13;5031238;28;20274;-71
2021/07/10 07:23:39;;;;;;;3.30;3.10;;;;;;;18.19;68.62;101816.97;5025552;28;20204;-71
2021/07/10 07:26:04;;;;;;;6.40;5.77;;;;;;;17.88;66.27;101755.47;5029170;28;20326;-72
2021/07/10 07:28:30;;;;;;;5.20;4.80;;;;;;;17.98;67.21;101766.66;5030978;28;20918;-71
2021/07/10 07:30:56;;;;;;;4.13;3.83;;;;;;;18.14;67.61;101798.66;5033089;28;20192;-71
2021/07/10 07:33:21;;;;;;;4.43;4.03;;;;;;;17.84;68.13;101745.06;5029840;28;20184;-72
2021/07/10 07:35:47;;;;;;;4.50;4.10;;;;;;;18.12;68.66;101789.88;5028424;28;20458;-72
2021/07/10 07:38:12;;;;;;;3.80;3.50;;;;;;;18.11;67.92;101776.53;5031650;28;20181;-72
2021/07/10 07:40:38;;;;;;;4.53;4.13;;;;;;;18.32;65.81;101776.09;5041747;28;20196;-71
2021/07/10 07:43:03;;;;;;;4.50;4.10;;;;;;;18.55;66.03;101802.53;5032569;28;20239;-72
2021/07/10 07:45:28;;;;;;;4.67;4.23;;;;;;;18.62;65.94;101814.13;5027056;28;20282;-72
2021/07/10 07:47:54;;;;;;;4.77;4.00;;;;;;;18.38;68.19;101794.19;5030477;28;20223;-71
2021/07/10 07:50:20;;;;;;;4.30;4.00;;;;;;;18.46;63.63;101814.78;5033299;28;20717;-72
2021/07/10 07:52:45;;;;;;;2.80;2.47;;;;;;;17.93;61.40;101766.50;5034033;28;20177;-71
2021/07/10 07:55:12;;;;;;;3.17;2.90;;;;;;;17.69;62.05;101709.31;5028524;28;20207;-73
2021/07/10 07:57:38;;;;;;;3.00;2.70;;;;;;;18.42;61.15;101811.66;5031370;28;20437;-72
2021/07/10 08:00:09;;;;;;;2.77;2.57;;;;;;;18.57;60.80;101838.44;5027425;28;20802;-72
2021/07/10 08:02:35;;;;;;;3.77;2.90;;;;;;;18.33;60.07;101812.22;5032430;28;20466;-72
2021/07/10 08:05:00;;;;;;;2.20;2.10;;;;;;;18.12;61.28;101773.59;5028480;28;20455;-72
2021/07/10 08:07:25;;;;;;;3.10;2.50;;;;;;;18.51;60.25;101842.06;5041964;28;20188;-72
2021/07/10 08:09:51;;;;;;;2.50;2.30;;;;;;;18.52;61.97;101835.59;5032871;28;20184;-72
2021/07/10 08:12:16;;;;;;;2.90;2.57;;;;;;;18.37;60.76;101808.81;5043386;28;20233;-72
2021/07/10 08:14:42;;;;;;;2.53;2.33;;;;;;;18.41;60.59;101787.47;5031184;28;20229;-71
2021/07/10 08:17:07;;;;;;;2.70;2.47;;;;;;;18.17;60.66;101765.59;5029100;28;20265;-72
2021/07/10 08:19:32;;;;;;;2.33;2.23;;;;;;;18.58;59.74;101802.09;5033109;28;20190;-72
2021/07/10 08:21:58;;;;;;;2.70;2.50;;;;;;;18.65;59.48;101835.41;5033897;28;20186;-72
2021/07/10 08:24:24;;;;;;;2.60;2.33;;;;;;;18.76;58.89;101827.59;5034648;28;20212;-71
2021/07/10 08:26:49;;;;;;;2.60;2.40;;;;;;;18.03;59.87;101720.66;5031540;28;20490;-72
2021/07/10 08:29:15;;;;;;;2.10;2.00;;;;;;;18.34;61.35;101770.41;5038066;28;20909;-72
2021/07/10 08:31:41;;;;;;;2.20;2.10;;;;;;;18.73;59.74;101796.25;5043470;28;20199;-72
2021/07/10 08:34:08;;;;;;;2.40;2.30;;;;;;;18.60;58.79;101782.81;5028639;28;20186;-72
2021/07/10 08:36:34;;;;;;;2.77;2.60;;;;;;;18.79;58.87;101822.53;5028455;28;20968;-72
2021/07/10 08:38:59;;;;;;;2.20;2.10;;;;;;;18.84;58.47;101789.25;5034782;28;20462;-72
2021/07/10 08:41:25;;;;;;;2.17;2.07;;;;;;;18.95;58.58;101797.44;5033566;28;20195;-73
2021/07/10 08:43:50;;;;;;;2.90;2.60;;;;;;;18.75;58.59;101818.63;5033207;28;20769;-72
2021/07/10 08:46:20;;;;;;;2.37;2.27;;;;;;;19.03;59.45;101811.75;5033113;28;20246;-73
2021/07/10 08:48:47;;;;;;;2.30;2.20;;;;;;;19.07;58.49;101815.69;5033762;28;20536;-73
2021/07/10 08:51:13;;;;;;;3.33;2.77;;;;;;;18.26;58.63;101690.91;5035519;28;20446;-72
2021/07/10 08:53:39;;;;;;;1.87;1.77;;;;;;;18.69;58.20;101790.44;5037735;28;20427;-72
2021/07/10 08:56:08;;;;;;;3.13;2.80;;;;;;;18.69;58.32;101757.84;5029946;28;20975;-72
2021/07/10 08:58:37;;;;;;;2.43;2.23;;;;;;;18.87;58.47;101783.34;5030870;28;20438;-72
2021/07/10 09:01:07;;;;;;;2.33;2.23;;;;;;;18.66;58.14;101774.59;5030979;28;20838;-73
2021/07/10 09:03:32;;;;;;;4.83;2.20;;;;;;;19.05;57.20;101793.31;5029748;28;20515;-72
2021/07/10 09:05:58;;;;;;;2.03;1.90;;;;;;;19.16;56.41;101811.56;5031186;28;20458;-72
2021/07/10 09:08:25;;;;;;;2.37;2.17;;;;;;;18.97;55.76;101805.34;5031046;28;20259;-72
2021/07/10 09:11:14;;;;;;;3.00;2.53;;;;;;;19.10;57.11;101805.16;5039016;28;20711;-72
2021/07/10 09:13:44;;;;;;;2.20;2.10;;;;;;;19.09;57.98;101773.59;5030661;28;20806;-72
2021/07/10 09:16:22;;;;;;;2.80;2.60;;;;;;;19.15;56.54;101791.69;5036265;28;21064;-72
2021/07/10 09:18:47;;;;;;;3.23;3.00;;;;;;;18.92;57.21;101794.34;5031374;28;20439;-72
2021/07/10 09:21:35;;;;;;;3.47;3.20;;;;;;;18.98;57.71;101779.81;5033302;28;20541;-72
2021/07/10 09:24:01;;;;;;;2.70;2.50;;;;;;;19.37;57.49;101785.69;5030732;28;20211;-72
2021/07/10 09:26:27;;;;;;;2.47;2.27;;;;;;;19.25;57.48;101774.78;5038331;28;20454;-73
2021/07/10 09:28:57;;;;;;;3.03;2.83;;;;;;;19.03;57.62;101782.66;5030801;28;20524;-73
2021/07/10 09:31:37;;;;;;;3.63;2.53;;;;;;;19.21;58.80;101770.91;5029722;28;20191;-71
2021/07/10 09:34:13;;;;;;;2.67;2.47;;;;;;;19.26;57.01;101773.72;5031122;28;21108;-72
2021/07/10 09:36:50;;;;;;;2.70;2.40;;;;;;;19.14;57.33;101721.22;5042467;28;20464;-72
2021/07/10 09:39:16;;;;;;;2.93;2.73;;;;;;;19.05;56.68;101760.69;5033018;28;20804;-72
2021/07/10 09:41:41;;;;;;;3.20;2.90;;;;;;;19.03;57.52;101725.56;5028933;28;20541;-72
2021/07/10 09:44:10;;;;;;;3.23;3.00;;;;;;;19.51;57.04;101783.59;5033913;28;20208;-72
2021/07/10 09:46:35;;;;;;;3.10;2.70;;;;;;;19.84;57.06;101786.56;5033308;28;20299;-72
2021/07/10 09:49:25;;;;;;;2.40;2.20;;;;;;;19.92;55.25;101790.84;5033612;28;20499;-72
2021/07/10 09:52:18;;;;;;;2.53;2.43;;;;;;;19.95;56.83;101784.09;5032016;28;20250;-72
2021/07/10 09:54:46;;;;;;;3.10;2.90;;;;;;;19.24;56.81;101694.28;5033975;28;20446;-72
2021/07/10 09:57:32;;;;;;;2.23;2.10;;;;;;;19.78;56.06;101786.69;5029674;28;20443;-72
2021/07/10 10:00:09;;;;;;;3.83;2.97;;;;;;;19.49;56.27;101775.66;5031876;28;20458;-72
2021/07/10 10:02:42;;;;;;;3.20;3.00;;;;;;;19.65;55.17;101790.50;5032530;28;20490;-73
2021/07/10 10:05:11;;;;;;;2.80;2.60;;;;;;;19.68;54.80;101783.75;5029737;28;20482;-73
2021/07/10 10:07:48;;;;;;;3.20;2.90;;;;;;;19.82;54.87;101788.72;5028320;28;20808;-72
2021/07/10 10:10:31;;;;;;;3.73;3.43;;;;;;;19.97;54.99;101780.06;5030458;28;20431;-73
2021/07/10 10:13:09;;;;;;;2.70;2.50;;;;;;;20.29;54.68;101774.19;5031018;28;20431;-72
2021/07/10 10:15:46;;;;;;;2.67;2.47;;;;;;;20.32;55.83;101768.25;5028904;28;20564;-73
2021/07/10 10:18:15;;;;;;;2.90;2.60;;;;;;;20.18;54.66;101764.16;5028330;28;20470;-73
2021/07/10 10:20:41;;;;;;;2.60;2.30;;;;;;;20.29;54.84;101736.88;5029001;28;20439;-72
2021/07/10 10:23:08;;;;;;;2.53;2.33;;;;;;;20.50;53.92;101738.09;5029352;28;20463;-73
2021/07/10 10:25:35;;;;;;;2.40;2.30;;;;;;;20.86;55.50;101766.06;5031656;28;20461;-72
2021/07/10 10:28:04;;;;;;;2.63;2.37;;;;;;;20.67;53.95;101761.91;5032534;28;22757;-72
2021/07/10 10:30:29;;;;;;;3.27;2.97;;;;;;;20.17;53.59;101708.84;5030398;28;20621;-72
2021/07/10 10:32:55;;;;;;;4.30;3.70;;;;;;;19.97;53.23;101758.28;5031204;28;21245;-72
2021/07/10 10:35:20;;;;;;;3.07;2.73;;;;;;;19.66;54.25;101691.44;5029992;28;20208;-72
2021/07/10 10:37:46;;;;;;;3.57;3.20;;;;;;;20.38;54.18;101742.78;5033111;28;20570;-72
2021/07/10 10:40:23;;;;;;;2.93;2.73;;;;;;;20.21;53.63;101690.13;5033856;28;20663;-73
2021/07/10 10:42:55;;;;;;;4.03;2.73;;;;;;;20.59;52.17;101744.03;5031335;28;20254;-72
2021/07/10 10:45:29;;;;;;;3.20;2.90;;;;;;;20.29;53.15;101746.97;5045598;28;21307;-72
2021/07/10 10:47:56;;;;;;;4.20;3.80;;;;;;;20.02;53.07;101724.91;5032524;28;20437;-72
2021/07/10 10:50:31;;;;;;;2.60;2.40;;;;;;;20.24;53.41;101640.59;5034190;28;20435;-72
2021/07/10 10:52:58;;;;;;;2.77;2.50;;;;;;;20.44;52.04;101681.03;5033090;28;20453;-72
2021/07/10 10:55:29;;;;;;;2.27;2.07;;;;;;;21.15;52.35;101742.31;5029033;28;20509;-73
2021/07/10 10:57:56;;;;;;;3.37;3.07;;;;;;;20.86;52.43;101710.69;5029950;28;20458;-73
2021/07/10 11:00:24;;;;;;;3.53;2.70;;;;;;;20.97;52.44;101751.56;5032712;28;20853;-72
2021/07/10 11:02:54;;;;;;;3.23;2.90;;;;;;;20.59;52.20;101746.75;5031896;28;21337;-71
2021/07/10 11:05:34;;;;;;;2.57;2.37;;;;;;;20.73;52.05;101717.28;5031554;28;20458;-72
2021/07/10 11:08:20;;;;;;;3.17;2.67;;;;;;;20.81;52.13;101746.88;5032040;28;20453;-72
2021/07/10 11:11:06;;;;;;;2.43;2.23;;;;;;;21.07;52.58;101741.88;5030308;28;20818;-72
2021/07/10 11:13:46;;;;;;;2.43;2.23;;;;;;;21.13;51.93;101728.06;5023853;28;20470;-73
2021/07/10 11:16:20;;;;;;;2.20;2.00;;;;;;;21.12;51.51;101737.34;5028959;28;20457;-71
2021/07/10 11:18:45;;;;;;;2.87;2.67;;;;;;;20.75;52.35;101739.69;5029540;28;20441;-71
2021/07/10 11:21:11;;;;;;;2.70;2.50;;;;;;;20.37;53.24;101664.03;5030471;28;20537;-71
2021/07/10 11:23:37;;;;;;;2.53;2.33;;;;;;;20.87;52.65;101723.28;5029281;28;20600;-70